Brunehault, Belgium
Current Conditions -  °F | °C
As of 6:20 AM on Sunday 26 Oct 2014 (Local Time) from EBCI Reporting Station
Broken Clouds Broken Clouds  
Wind Chill: 52°   Ceiling: 3300
Heat Index: 52°   Visibility: 4mi
Dew Point: 50°   Wind: 7mph
Humidity: 94%   Direction: 190°S
Pressure: 30.27"   Gusts: NA
Location:  50.51°N, 4.43°E
Report Text: EBCI 260420Z 19006KT 7000 BKN033 11/10 Q1025 NOSIG
Loading
Personal Weather Stations






























Interactive Weather Map
Tropical Storm Tracking
New forecast layout! Learn more

10-Day Weather Forecast

Advertisements
Track Severe Weather on mobile